2CD2 weather

Medical Center Of The Rockies Heliport
Loveland, Colorado, United States

Public forecast

Using degrees Fahrenheit for public forecast. Weather courtesy of forecast.io.

METAR (pilot weather report)

Closest report is Northern Colorado Regional Airport, 2.1 nm (3.9 km) NNW. Retrieved 2019/09/22 16:56 UTC (21 minutes ago):

KFNL 221656Z AUTO 12007KT 100V160 10SM CLR 17/04 A3012 RMK AO2 SLP163 T01720044

TAF (pilot weather forecast)

Closest forecast is Rocky Mountain Metropolitan Airport, 31.0 nm (57.5 km) S. Retrieved 2019/09/22 12:22 UTC (5 hours ago):

TAF KBJC 221120Z 2212/2312 VRB05KT P6SM FEW120 FM221700 34006KT P6SM SKC FM221900 05006KT P6SM FEW100 FM230100 15006KT P6SM SKC FM230500 25006KT P6SM SCT220